Time;durP1;ratioP1;P1;durP2;ratioP2;P2;SDS_P1;SDS_P2;PMS_P1;PMS_P2;Temp;Humidity;BMP_temperature;BMP_pressure;BME280_temperature;BME280_humidity;BME280_pressure;Samples;Min_cycle;Max_cycle;Signal;HPM_P1;HPM_P2
2021/07/25 00:00:05;;;;;;;12.23;7.63;;;;;;;;;;4997932;28;20029;-76
2021/07/25 00:02:33;;;;;;;13.23;7.28;;;;;;;;;;4991328;28;20036;-77
2021/07/25 00:04:59;;;;;;;13.02;7.35;;;;;;;;;;4996715;28;20037;-76
2021/07/25 00:07:24;;;;;;;12.15;7.15;;;;;;;;;;5003761;28;20119;-76
2021/07/25 00:09:50;;;;;;;12.23;7.85;;;;;;;;;;4974534;28;20131;-77
2021/07/25 00:12:15;;;;;;;11.57;7.53;;;;;;;;;;5002069;28;20096;-77
2021/07/25 00:14:41;;;;;;;12.25;7.43;;;;;;;;;;4990254;28;20034;-76
2021/07/25 00:17:06;;;;;;;12.63;8.07;;;;;;;;;;4999592;28;20644;-77
2021/07/25 00:19:35;;;;;;;17.35;8.07;;;;;;;;;;5002125;28;20032;-77
2021/07/25 00:22:01;;;;;;;17.30;8.63;;;;;;;;;;4993615;28;20018;-77
2021/07/25 00:24:34;;;;;;;13.27;7.65;;;;;;;;;;4994189;28;20044;-77
2021/07/25 00:27:00;;;;;;;17.23;8.50;;;;;;;;;;4990246;28;20509;-76
2021/07/25 00:29:30;;;;;;;16.15;8.70;;;;;;;;;;4992732;28;20064;-77
2021/07/25 00:32:04;;;;;;;15.95;8.25;;;;;;;;;;4998061;28;20092;-76
2021/07/25 00:34:32;;;;;;;11.70;7.85;;;;;;;;;;4997265;28;20030;-77
2021/07/25 00:36:58;;;;;;;16.02;7.80;;;;;;;;;;4999591;28;20030;-76
2021/07/25 00:39:24;;;;;;;15.77;7.40;;;;;;;;;;4994980;28;20084;-77
2021/07/25 00:41:50;;;;;;;11.25;7.13;;;;;;;;;;4993369;28;20034;-78
2021/07/25 00:44:16;;;;;;;13.38;7.30;;;;;;;;;;4997138;28;20022;-85
2021/07/25 00:46:47;;;;;;;13.20;7.18;;;;;;;;;;4988917;28;20026;-85
2021/07/25 00:49:14;;;;;;;18.63;8.05;;;;;;;;;;5006407;28;20549;-85
2021/07/25 00:51:39;;;;;;;13.57;8.00;;;;;;;;;;5000448;28;20059;-85
2021/07/25 00:54:05;;;;;;;15.43;7.35;;;;;;;;;;5005764;28;20041;-84
2021/07/25 00:56:31;;;;;;;14.40;7.78;;;;;;;;;;4994457;28;20057;-84
2021/07/25 00:58:56;;;;;;;17.70;8.18;;;;;;;;;;4979913;28;20129;-84
2021/07/25 01:01:22;;;;;;;11.20;7.70;;;;;;;;;;4993600;28;20046;-84
2021/07/25 01:04:21;;;;;;;13.70;6.53;;;;;;;;;;4997299;28;20034;-84
2021/07/25 01:07:05;;;;;;;9.57;6.90;;;;;;;;;;5006018;28;20022;-85
2021/07/25 01:09:45;;;;;;;14.63;7.47;;;;;;;;;;4998233;28;20030;-84
2021/07/25 01:12:22;;;;;;;9.35;6.43;;;;;;;;;;5005126;28;20488;-85
2021/07/25 01:14:49;;;;;;;9.68;6.95;;;;;;;;;;5001219;28;20026;-84
2021/07/25 01:17:34;;;;;;;13.60;7.18;;;;;;;;;;4993520;28;20030;-76
2021/07/25 01:20:05;;;;;;;17.55;8.32;;;;;;;;;;5001636;28;20600;-76
2021/07/25 01:22:34;;;;;;;9.68;6.80;;;;;;;;;;4976960;28;20062;-76
2021/07/25 01:25:01;;;;;;;12.70;6.80;;;;;;;;;;4990393;28;20401;-76
2021/07/25 01:27:33;;;;;;;10.98;6.85;;;;;;;;;;5002283;28;20029;-76
2021/07/25 01:30:01;;;;;;;13.40;7.55;;;;;;;;;;5007332;28;20476;-77
2021/07/25 01:32:29;;;;;;;12.80;7.00;;;;;;;;;;4990659;28;20504;-76
2021/07/25 01:34:59;;;;;;;11.27;7.07;;;;;;;;;;5001415;28;20065;-76
2021/07/25 01:37:27;;;;;;;13.30;6.97;;;;;;;;;;4994831;28;20436;-76
2021/07/25 01:39:53;;;;;;;9.20;6.80;;;;;;;;;;5000465;28;20036;-76
2021/07/25 01:42:30;;;;;;;13.00;6.57;;;;;;;;;;4997759;28;20488;-76
2021/07/25 01:44:56;;;;;;;10.45;6.90;;;;;;;;;;5004795;28;20101;-76
2021/07/25 01:47:22;;;;;;;10.85;7.22;;;;;;;;;;4998646;28;20041;-76
2021/07/25 01:49:47;;;;;;;9.25;6.38;;;;;;;;;;4980153;28;20034;-76
2021/07/25 01:52:13;;;;;;;12.00;7.15;;;;;;;;;;4962566;28;20042;-76
2021/07/25 01:54:38;;;;;;;15.13;7.20;;;;;;;;;;5001358;28;20080;-77
2021/07/25 01:57:04;;;;;;;10.73;6.55;;;;;;;;;;5003039;28;20030;-76
2021/07/25 01:59:29;;;;;;;10.70;6.78;;;;;;;;;;4976523;28;20457;-77
2021/07/25 02:01:54;;;;;;;12.48;7.28;;;;;;;;;;4988326;28;20034;-76
2021/07/25 02:04:20;;;;;;;11.55;7.07;;;;;;;;;;5005779;28;20544;-76
2021/07/25 02:06:45;;;;;;;16.73;7.20;;;;;;;;;;4977919;28;20123;-76
2021/07/25 02:09:12;;;;;;;13.95;7.05;;;;;;;;;;4987934;28;20053;-76
2021/07/25 02:11:38;;;;;;;11.27;6.82;;;;;;;;;;4980487;28;20061;-76
2021/07/25 02:14:04;;;;;;;10.98;7.32;;;;;;;;;;4971359;28;20069;-76
2021/07/25 02:16:29;;;;;;;13.52;7.25;;;;;;;;;;5002503;28;20065;-77
2021/07/25 02:18:55;;;;;;;17.80;7.28;;;;;;;;;;4999464;28;20034;-77
2021/07/25 02:21:20;;;;;;;16.48;7.32;;;;;;;;;;4974844;28;20545;-77
2021/07/25 02:23:46;;;;;;;12.52;7.30;;;;;;;;;;4984687;28;20401;-76
2021/07/25 02:26:11;;;;;;;12.48;6.78;;;;;;;;;;4995109;28;20034;-76
2021/07/25 02:28:37;;;;;;;13.00;7.90;;;;;;;;;;4997054;28;20030;-76
2021/07/25 02:31:02;;;;;;;16.58;7.97;;;;;;;;;;4999859;28;20480;-77
2021/07/25 02:33:27;;;;;;;11.77;6.88;;;;;;;;;;4984087;28;20151;-77
2021/07/25 02:35:54;;;;;;;10.70;7.07;;;;;;;;;;4997051;28;20057;-77
2021/07/25 02:38:19;;;;;;;24.52;8.27;;;;;;;;;;4999636;28;20061;-76
2021/07/25 02:40:45;;;;;;;11.73;7.53;;;;;;;;;;4998525;28;20121;-77
2021/07/25 02:43:10;;;;;;;18.33;8.30;;;;;;;;;;4998899;28;20022;-77
2021/07/25 02:45:36;;;;;;;12.70;7.35;;;;;;;;;;5003133;28;20405;-77
2021/07/25 02:48:01;;;;;;;10.02;6.95;;;;;;;;;;4999727;28;20453;-76
2021/07/25 02:50:27;;;;;;;12.43;7.38;;;;;;;;;;5003283;28;20037;-77
2021/07/25 02:52:52;;;;;;;13.68;7.93;;;;;;;;;;4999631;28;20496;-76
2021/07/25 02:55:18;;;;;;;13.52;7.68;;;;;;;;;;4987880;28;20044;-77
2021/07/25 02:57:43;;;;;;;12.35;7.88;;;;;;;;;;4998503;28;20398;-76
2021/07/25 03:00:09;;;;;;;14.07;7.43;;;;;;;;;;4980685;28;20489;-76
2021/07/25 03:02:36;;;;;;;15.00;8.63;;;;;;;;;;4993877;28;20026;-76
2021/07/25 03:05:03;;;;;;;19.85;8.77;;;;;;;;;;4998010;28;20057;-77
2021/07/25 03:07:29;;;;;;;16.13;8.57;;;;;;;;;;4996345;28;20053;-76
2021/07/25 03:09:55;;;;;;;12.75;8.25;;;;;;;;;;4997743;28;20061;-76
2021/07/25 03:12:20;;;;;;;18.50;9.18;;;;;;;;;;4982221;28;20033;-76
2021/07/25 03:14:46;;;;;;;13.18;7.95;;;;;;;;;;4998210;28;20370;-77
2021/07/25 03:17:11;;;;;;;16.23;8.40;;;;;;;;;;4993268;28;20040;-76
2021/07/25 03:19:37;;;;;;;17.90;8.35;;;;;;;;;;5003525;28;20068;-77
2021/07/25 03:22:04;;;;;;;13.52;8.73;;;;;;;;;;4971110;28;20049;-77
2021/07/25 03:24:31;;;;;;;16.92;8.38;;;;;;;;;;4997134;28;20577;-76
2021/07/25 03:26:56;;;;;;;14.02;8.15;;;;;;;;;;4980356;28;20116;-76
2021/07/25 03:29:22;;;;;;;20.58;8.40;;;;;;;;;;4999251;28;20097;-77
2021/07/25 03:31:47;;;;;;;18.83;8.65;;;;;;;;;;5002161;28;20042;-76
2021/07/25 03:34:13;;;;;;;15.30;8.32;;;;;;;;;;4998890;28;20666;-76
2021/07/25 03:36:39;;;;;;;14.18;7.28;;;;;;;;;;4985610;28;20054;-76
2021/07/25 03:39:11;;;;;;;17.33;9.32;;;;;;;;;;4999204;28;20113;-76
2021/07/25 03:41:36;;;;;;;17.70;8.45;;;;;;;;;;4999563;28;20041;-76
2021/07/25 03:44:02;;;;;;;15.25;8.02;;;;;;;;;;4991837;28;20059;-77
2021/07/25 03:46:27;;;;;;;11.57;7.88;;;;;;;;;;5000773;28;20048;-76
2021/07/25 03:48:53;;;;;;;11.98;7.93;;;;;;;;;;4996300;28;20113;-76
2021/07/25 03:51:18;;;;;;;14.32;8.60;;;;;;;;;;4999484;28;20392;-76
2021/07/25 03:53:44;;;;;;;12.98;8.13;;;;;;;;;;4997900;28;20034;-76
2021/07/25 03:56:09;;;;;;;17.02;7.38;;;;;;;;;;4997067;28;20030;-76
2021/07/25 03:58:35;;;;;;;9.95;7.10;;;;;;;;;;4994286;28;20045;-76
2021/07/25 04:01:01;;;;;;;13.25;7.68;;;;;;;;;;5002101;28;20033;-76
2021/07/25 04:03:26;;;;;;;12.70;7.85;;;;;;;;;;4974716;28;20034;-76
2021/07/25 04:05:51;;;;;;;13.48;8.38;;;;;;;;;;5001635;28;20041;-76
2021/07/25 04:08:17;;;;;;;17.23;7.85;;;;;;;;;;4996760;28;20026;-76
2021/07/25 04:10:44;;;;;;;16.13;8.48;;;;;;;;;;4957593;28;20085;-76
2021/07/25 04:13:11;;;;;;;15.45;8.48;;;;;;;;;;5011290;28;20033;-76
2021/07/25 04:15:38;;;;;;;17.95;8.65;;;;;;;;;;4992248;28;20042;-77
2021/07/25 04:18:04;;;;;;;17.48;8.70;;;;;;;;;;4992570;28;20038;-76
2021/07/25 04:20:29;;;;;;;15.80;8.10;;;;;;;;;;5004116;28;20041;-76
2021/07/25 04:22:55;;;;;;;14.40;9.02;;;;;;;;;;4995944;28;20405;-76
2021/07/25 04:25:20;;;;;;;14.95;9.82;;;;;;;;;;5001154;28;20283;-76
2021/07/25 04:27:46;;;;;;;16.17;9.02;;;;;;;;;;4974164;28;20402;-77
2021/07/25 04:30:12;;;;;;;18.80;10.48;;;;;;;;;;4968904;28;20112;-77
2021/07/25 04:32:38;;;;;;;22.10;11.13;;;;;;;;;;4975110;28;20083;-77
2021/07/25 04:35:07;;;;;;;16.60;9.60;;;;;;;;;;4988405;28;20456;-77
2021/07/25 04:37:34;;;;;;;25.80;10.25;;;;;;;;;;4994551;28;20112;-76
2021/07/25 04:40:00;;;;;;;22.75;10.60;;;;;;;;;;4996931;28;20045;-77
2021/07/25 04:42:27;;;;;;;22.88;10.93;;;;;;;;;;4984833;28;20022;-76
2021/07/25 04:45:03;;;;;;;19.63;10.45;;;;;;;;;;4996227;28;20042;-77
2021/07/25 04:47:49;;;;;;;23.42;10.55;;;;;;;;;;4994621;28;20030;-77
2021/07/25 04:50:22;;;;;;;22.55;11.38;;;;;;;;;;4994083;28;20120;-77
2021/07/25 04:52:52;;;;;;;22.77;11.30;;;;;;;;;;4999123;28;20028;-76
2021/07/25 04:55:21;;;;;;;23.58;12.80;;;;;;;;;;4981298;28;20520;-77
2021/07/25 04:58:03;;;;;;;21.42;11.52;;;;;;;;;;4998661;28;20026;-77
2021/07/25 05:00:30;;;;;;;23.00;12.10;;;;;;;;;;4989679;28;20405;-77
2021/07/25 05:03:00;;;;;;;26.45;11.38;;;;;;;;;;4979917;28;20528;-77
2021/07/25 05:05:26;;;;;;;20.98;11.77;;;;;;;;;;4988889;28;20068;-77
2021/07/25 05:07:53;;;;;;;20.50;11.27;;;;;;;;;;4993904;28;20502;-76
2021/07/25 05:10:19;;;;;;;25.45;11.95;;;;;;;;;;4996475;28;20042;-77
2021/07/25 05:12:52;;;;;;;19.98;10.85;;;;;;;;;;4984003;28;20113;-77
2021/07/25 05:15:24;;;;;;;23.33;11.30;;;;;;;;;;4998197;28;20135;-76
2021/07/25 05:18:04;;;;;;;18.25;11.82;;;;;;;;;;4993323;28;20022;-77
2021/07/25 05:21:01;;;;;;;21.45;12.32;;;;;;;;;;4997271;28;20084;-77
2021/07/25 05:23:49;;;;;;;18.70;10.23;;;;;;;;;;5002290;28;20178;-76
2021/07/25 05:26:15;;;;;;;19.25;11.23;;;;;;;;;;4993603;28;20042;-76
2021/07/25 05:28:44;;;;;;;30.10;11.77;;;;;;;;;;4995277;28;20617;-76
2021/07/25 05:31:10;;;;;;;20.63;10.75;;;;;;;;;;5000237;28;20033;-76
2021/07/25 05:33:36;;;;;;;16.27;9.55;;;;;;;;;;5003408;28;20037;-76
2021/07/25 05:36:02;;;;;;;17.83;10.57;;;;;;;;;;4988835;28;20058;-77
2021/07/25 05:38:27;;;;;;;18.40;10.95;;;;;;;;;;4992982;28;20783;-76
2021/07/25 05:40:53;;;;;;;19.30;10.88;;;;;;;;;;5004026;28;20034;-77
2021/07/25 05:43:19;;;;;;;18.27;11.27;;;;;;;;;;4993886;28;20078;-76
2021/07/25 05:45:44;;;;;;;24.90;11.95;;;;;;;;;;5014436;28;20081;-76
2021/07/25 05:48:10;;;;;;;17.65;10.05;;;;;;;;;;4996769;28;20026;-77
2021/07/25 05:50:36;;;;;;;21.70;12.00;;;;;;;;;;4987503;28;20129;-76
2021/07/25 05:53:02;;;;;;;21.17;11.02;;;;;;;;;;4997685;28;20027;-85
2021/07/25 05:55:33;;;;;;;20.30;10.15;;;;;;;;;;4997791;28;20045;-84
2021/07/25 05:57:59;;;;;;;17.00;10.45;;;;;;;;;;4992012;28;20043;-85
2021/07/25 06:00:26;;;;;;;20.42;11.20;;;;;;;;;;5006836;28;20030;-85
2021/07/25 06:02:54;;;;;;;20.10;10.82;;;;;;;;;;5004092;28;20038;-85
2021/07/25 06:05:21;;;;;;;22.67;10.50;;;;;;;;;;5000976;28;20121;-85
2021/07/25 06:07:47;;;;;;;23.05;9.88;;;;;;;;;;4997003;28;20034;-85
2021/07/25 06:10:12;;;;;;;16.77;10.40;;;;;;;;;;4995968;28;20113;-84
2021/07/25 06:12:39;;;;;;;17.08;10.40;;;;;;;;;;4982195;28;20030;-83
2021/07/25 06:15:05;;;;;;;18.25;10.05;;;;;;;;;;4984897;28;20030;-84
2021/07/25 06:17:31;;;;;;;16.52;9.25;;;;;;;;;;4983305;28;20400;-84
2021/07/25 06:19:56;;;;;;;19.08;10.30;;;;;;;;;;4999952;28;20041;-84
2021/07/25 06:22:22;;;;;;;20.42;10.18;;;;;;;;;;5004772;28;20558;-76
2021/07/25 06:24:47;;;;;;;24.63;9.43;;;;;;;;;;4999440;28;20085;-77
2021/07/25 06:27:12;;;;;;;19.98;9.88;;;;;;;;;;4994619;28;20034;-76
2021/07/25 06:29:38;;;;;;;16.75;8.75;;;;;;;;;;4978771;28;20490;-76
2021/07/25 06:32:04;;;;;;;18.98;9.88;;;;;;;;;;4974934;28;20394;-76
2021/07/25 06:34:29;;;;;;;18.65;8.85;;;;;;;;;;5008047;28;20033;-77
2021/07/25 06:36:55;;;;;;;17.92;8.82;;;;;;;;;;4997297;28;20100;-76
2021/07/25 06:39:21;;;;;;;20.48;9.10;;;;;;;;;;4998504;28;20022;-76
2021/07/25 06:41:46;;;;;;;13.75;8.35;;;;;;;;;;4992334;28;20494;-76
2021/07/25 06:44:12;;;;;;;18.20;9.43;;;;;;;;;;4987131;28;20146;-76
2021/07/25 06:46:37;;;;;;;16.30;9.43;;;;;;;;;;5007241;28;20033;-76
2021/07/25 06:49:03;;;;;;;16.38;9.65;;;;;;;;;;4985877;28;20033;-77
2021/07/25 06:51:28;;;;;;;16.77;9.60;;;;;;;;;;5009222;28;20022;-76
2021/07/25 06:53:54;;;;;;;20.77;10.35;;;;;;;;;;5001512;28;20046;-76
2021/07/25 06:56:19;;;;;;;17.17;9.63;;;;;;;;;;4998035;28;20087;-77
2021/07/25 06:58:44;;;;;;;13.55;9.27;;;;;;;;;;4990822;28;20041;-77
2021/07/25 07:01:11;;;;;;;19.40;9.85;;;;;;;;;;5007838;28;20030;-77
2021/07/25 07:03:38;;;;;;;15.80;8.88;;;;;;;;;;4988364;28;20034;-77
2021/07/25 07:06:10;;;;;;;20.67;10.00;;;;;;;;;;5002774;28;20029;-76
2021/07/25 07:08:35;;;;;;;16.40;8.95;;;;;;;;;;4997602;28;20053;-76
2021/07/25 07:11:01;;;;;;;14.15;9.05;;;;;;;;;;4999818;28;20436;-76
2021/07/25 07:13:26;;;;;;;15.07;8.48;;;;;;;;;;5000426;28;20050;-76
2021/07/25 07:15:52;;;;;;;21.40;9.32;;;;;;;;;;4978698;28;20738;-77
2021/07/25 07:18:19;;;;;;;15.60;8.15;;;;;;;;;;4996042;28;20030;-76
2021/07/25 07:20:45;;;;;;;18.35;9.02;;;;;;;;;;4997775;28;20416;-76
2021/07/25 07:23:13;;;;;;;18.38;9.38;;;;;;;;;;5001719;28;20491;-76
2021/07/25 07:25:44;;;;;;;27.98;12.65;;;;;;;;;;5003659;28;20022;-78
2021/07/25 07:28:10;;;;;;;14.73;8.88;;;;;;;;;;5004025;28;20577;-76
2021/07/25 07:30:36;;;;;;;15.65;9.25;;;;;;;;;;4994167;28;20109;-75
2021/07/25 07:33:22;;;;;;;13.18;8.32;;;;;;;;;;4995619;28;20065;-75
2021/07/25 07:35:48;;;;;;;21.88;8.73;;;;;;;;;;4993235;28;20505;-74
2021/07/25 07:38:15;;;;;;;19.60;9.23;;;;;;;;;;4996978;28;20027;-74
2021/07/25 07:40:42;;;;;;;13.77;8.50;;;;;;;;;;4990600;28;20389;-76
2021/07/25 07:43:09;;;;;;;15.48;8.35;;;;;;;;;;4999720;28;20034;-74
2021/07/25 07:45:35;;;;;;;18.52;9.45;;;;;;;;;;4994903;28;20026;-77
2021/07/25 07:48:01;;;;;;;15.85;8.43;;;;;;;;;;4980121;28;20011;-77
2021/07/25 07:50:27;;;;;;;18.48;9.18;;;;;;;;;;5016555;28;20029;-77
2021/07/25 07:52:52;;;;;;;11.27;6.78;;;;;;;;;;5019133;28;20092;-77
2021/07/25 07:55:18;;;;;;;15.20;8.25;;;;;;;;;;4993955;28;20506;-77
2021/07/25 07:57:44;;;;;;;19.48;8.30;;;;;;;;;;4989427;28;20037;-74
2021/07/25 08:00:11;;;;;;;14.48;7.70;;;;;;;;;;4978253;28;20041;-75
2021/07/25 08:02:36;;;;;;;17.40;7.55;;;;;;;;;;5004562;28;20025;-75
2021/07/25 08:05:03;;;;;;;17.58;8.02;;;;;;;;;;4981969;28;20489;-75
2021/07/25 08:07:28;;;;;;;20.90;8.38;;;;;;;;;;4999556;28;20498;-78
2021/07/25 08:09:54;;;;;;;15.10;8.90;;;;;;;;;;4994738;28;20113;-75
2021/07/25 08:12:19;;;;;;;14.77;8.27;;;;;;;;;;4993049;28;20026;-75
2021/07/25 08:14:45;;;;;;;18.10;8.95;;;;;;;;;;4990322;28;20049;-75
2021/07/25 08:17:11;;;;;;;21.45;7.97;;;;;;;;;;4991345;28;20030;-75
2021/07/25 08:19:37;;;;;;;18.83;8.25;;;;;;;;;;4997708;28;20049;-75
2021/07/25 08:22:07;;;;;;;18.75;8.27;;;;;;;;;;5000091;28;20034;-75
2021/07/25 08:24:35;;;;;;;13.13;7.57;;;;;;;;;;4998376;28;20030;-75
2021/07/25 08:27:01;;;;;;;13.90;7.55;;;;;;;;;;4997171;28;20057;-78
2021/07/25 08:29:27;;;;;;;12.55;7.68;;;;;;;;;;4970803;28;20058;-75
2021/07/25 08:31:52;;;;;;;14.88;7.97;;;;;;;;;;4993372;28;20022;-75
2021/07/25 08:34:18;;;;;;;19.77;8.23;;;;;;;;;;4972390;28;20042;-74
2021/07/25 08:36:43;;;;;;;19.33;8.73;;;;;;;;;;4996037;28;20058;-77
2021/07/25 08:39:09;;;;;;;16.45;8.18;;;;;;;;;;4993288;28;20042;-75
2021/07/25 08:41:53;;;;;;;15.70;8.40;;;;;;;;;;4998980;28;20097;-75
2021/07/25 08:44:39;;;;;;;20.02;8.00;;;;;;;;;;4986595;28;20034;-75
2021/07/25 08:47:20;;;;;;;15.55;8.98;;;;;;;;;;4994367;28;20046;-76
2021/07/25 08:49:56;;;;;;;18.60;8.75;;;;;;;;;;5015753;28;20076;-76
2021/07/25 08:52:24;;;;;;;18.02;8.25;;;;;;;;;;4985539;28;20112;-75
2021/07/25 08:54:50;;;;;;;31.42;9.20;;;;;;;;;;4996250;28;20038;-75
2021/07/25 08:57:19;;;;;;;18.60;8.20;;;;;;;;;;4989913;28;20042;-75
2021/07/25 08:59:47;;;;;;;19.83;9.02;;;;;;;;;;4992349;28;20034;-75
2021/07/25 09:02:24;;;;;;;15.75;7.97;;;;;;;;;;4986429;28;20057;-75
2021/07/25 09:04:51;;;;;;;18.77;8.90;;;;;;;;;;4996410;28;20498;-75
2021/07/25 09:07:18;;;;;;;19.88;8.73;;;;;;;;;;4998471;28;20030;-75
2021/07/25 09:09:47;;;;;;;15.15;7.80;;;;;;;;;;4996629;28;20030;-74
2021/07/25 09:12:14;;;;;;;13.82;8.23;;;;;;;;;;4992953;28;20022;-75
2021/07/25 09:14:42;;;;;;;13.43;7.68;;;;;;;;;;4988499;28;20030;-74
2021/07/25 09:17:08;;;;;;;24.88;8.68;;;;;;;;;;4990689;28;20099;-76
2021/07/25 09:19:33;;;;;;;12.13;8.27;;;;;;;;;;4999735;28;20607;-76
2021/07/25 09:21:59;;;;;;;15.43;8.38;;;;;;;;;;4995272;28;20062;-76
2021/07/25 09:24:31;;;;;;;15.57;7.70;;;;;;;;;;5001106;28;20117;-76
2021/07/25 09:27:02;;;;;;;16.50;7.60;;;;;;;;;;4997636;28;20029;-76
2021/07/25 09:29:30;;;;;;;13.70;7.50;;;;;;;;;;4989940;28;20498;-76
2021/07/25 09:32:18;;;;;;;15.48;8.00;;;;;;;;;;4995318;28;20026;-76
2021/07/25 09:34:46;;;;;;;13.18;7.55;;;;;;;;;;4990996;28;20037;-76
2021/07/25 09:37:20;;;;;;;13.35;7.68;;;;;;;;;;4992096;28;20088;-76
2021/07/25 09:39:48;;;;;;;16.02;7.35;;;;;;;;;;5002200;28;20010;-77
2021/07/25 09:42:14;;;;;;;20.17;8.32;;;;;;;;;;5003592;28;20397;-76
2021/07/25 09:44:49;;;;;;;15.60;6.63;;;;;;;;;;4996931;28;20030;-76
2021/07/25 09:47:29;;;;;;;12.40;7.80;;;;;;;;;;4994027;28;20030;-75
2021/07/25 09:49:56;;;;;;;11.40;7.13;;;;;;;;;;4985016;28;20041;-76
2021/07/25 09:52:33;;;;;;;13.40;7.10;;;;;;;;;;4990030;28;20034;-76
2021/07/25 09:54:59;;;;;;;10.48;6.53;;;;;;;;;;4995949;28;20091;-76
2021/07/25 09:57:27;;;;;;;11.93;6.40;;;;;;;;;;4995971;28;20032;-76
2021/07/25 09:59:58;;;;;;;16.70;6.80;;;;;;;;;;4989066;28;20031;-76
2021/07/25 10:02:43;;;;;;;11.85;7.35;;;;;;;;;;4991917;28;20029;-75
2021/07/25 10:05:17;;;;;;;13.63;7.38;;;;;;;;;;4992112;28;20030;-75
2021/07/25 10:07:44;;;;;;;10.52;6.90;;;;;;;;;;4999298;28;20023;-75
2021/07/25 10:10:14;;;;;;;17.15;8.40;;;;;;;;;;4993718;28;20097;-76
2021/07/25 10:12:41;;;;;;;16.23;7.55;;;;;;;;;;4988120;28;20088;-76
2021/07/25 10:15:11;;;;;;;17.55;7.20;;;;;;;;;;4998037;28;20057;-76
2021/07/25 10:17:42;;;;;;;13.25;8.05;;;;;;;;;;4998716;28;20029;-76
2021/07/25 10:20:11;;;;;;;14.13;7.50;;;;;;;;;;5015369;28;20042;-76
2021/07/25 10:22:38;;;;;;;11.65;7.55;;;;;;;;;;5003373;28;20814;-76
2021/07/25 10:25:06;;;;;;;13.60;7.15;;;;;;;;;;4994929;28;20386;-75
2021/07/25 10:27:32;;;;;;;16.88;8.00;;;;;;;;;;5004399;28;20041;-75
2021/07/25 10:30:05;;;;;;;14.75;8.38;;;;;;;;;;4999324;28;20033;-76
2021/07/25 10:32:33;;;;;;;14.38;8.32;;;;;;;;;;5002869;28;20045;-76
2021/07/25 10:35:02;;;;;;;14.13;7.70;;;;;;;;;;4995750;28;20030;-75
2021/07/25 10:37:29;;;;;;;15.98;7.55;;;;;;;;;;4995347;28;20038;-76
2021/07/25 10:39:56;;;;;;;10.27;7.00;;;;;;;;;;4995556;28;20129;-76
2021/07/25 10:42:24;;;;;;;14.18;7.68;;;;;;;;;;5000930;28;20048;-76
2021/07/25 10:44:50;;;;;;;13.82;7.20;;;;;;;;;;4997463;28;20052;-75
2021/07/25 10:47:26;;;;;;;15.27;7.72;;;;;;;;;;4995757;28;20544;-75
2021/07/25 10:50:06;;;;;;;14.68;6.70;;;;;;;;;;4995576;28;20033;-75
2021/07/25 10:52:55;;;;;;;13.65;7.18;;;;;;;;;;4993897;28;20030;-75
2021/07/25 10:55:41;;;;;;;13.77;7.15;;;;;;;;;;4995182;28;20069;-76
2021/07/25 10:58:20;;;;;;;11.68;7.10;;;;;;;;;;5000260;28;20034;-75
2021/07/25 11:00:54;;;;;;;13.95;7.55;;;;;;;;;;4998320;28;20081;-75
2021/07/25 11:03:25;;;;;;;19.02;7.72;;;;;;;;;;5002260;28;20026;-75
2021/07/25 11:06:05;;;;;;;15.93;7.40;;;;;;;;;;4990740;28;20441;-75
2021/07/25 11:08:31;;;;;;;16.63;7.57;;;;;;;;;;4998466;28;20437;-75
2021/07/25 11:10:56;;;;;;;16.77;7.53;;;;;;;;;;4991737;28;20070;-75
2021/07/25 11:13:38;;;;;;;14.02;7.47;;;;;;;;;;4992658;28;20403;-75
2021/07/25 11:16:30;;;;;;;16.85;6.90;;;;;;;;;;5001437;28;20026;-74
2021/07/25 11:18:59;;;;;;;13.02;7.28;;;;;;;;;;4992026;28;20026;-75
2021/07/25 11:21:32;;;;;;;12.75;7.05;;;;;;;;;;4991122;28;20026;-75
2021/07/25 11:23:58;;;;;;;14.35;7.00;;;;;;;;;;5024208;28;20477;-75
2021/07/25 11:26:43;;;;;;;12.95;6.63;;;;;;;;;;4993752;28;20045;-75
2021/07/25 11:29:10;;;;;;;12.65;6.22;;;;;;;;;;4975681;28;20034;-74
2021/07/25 11:31:49;;;;;;;16.48;6.97;;;;;;;;;;4999140;28;20494;-75
2021/07/25 11:34:29;;;;;;;14.52;6.43;;;;;;;;;;4982928;28;20040;-75
2021/07/25 11:37:07;;;;;;;11.15;6.38;;;;;;;;;;4991744;28;20076;-74
2021/07/25 11:39:33;;;;;;;12.40;6.45;;;;;;;;;;5014753;28;20522;-75
2021/07/25 11:42:04;;;;;;;11.50;6.28;;;;;;;;;;4996511;28;20047;-75
2021/07/25 11:44:31;;;;;;;12.52;7.22;;;;;;;;;;4994156;28;20037;-74
2021/07/25 11:46:58;;;;;;;18.33;6.90;;;;;;;;;;4983151;28;20431;-75
2021/07/25 11:49:38;;;;;;;11.27;5.60;;;;;;;;;;4991811;28;20027;-74
2021/07/25 11:52:07;;;;;;;19.15;6.45;;;;;;;;;;4996923;28;20034;-75
2021/07/25 11:54:34;;;;;;;17.00;7.47;;;;;;;;;;4999866;28;20018;-75
2021/07/25 11:57:05;;;;;;;20.88;7.40;;;;;;;;;;4994731;28;20066;-74
2021/07/25 11:59:49;;;;;;;14.53;7.53;;;;;;;;;;5005323;28;20435;-74
2021/07/25 12:02:25;;;;;;;14.63;6.88;;;;;;;;;;4999120;28;20022;-75
2021/07/25 12:04:51;;;;;;;11.82;7.00;;;;;;;;;;4992124;28;20030;-75
2021/07/25 12:07:20;;;;;;;11.75;6.28;;;;;;;;;;5003717;28;20037;-75
2021/07/25 12:09:51;;;;;;;15.38;7.00;;;;;;;;;;4993271;28;20022;-76
2021/07/25 12:12:21;;;;;;;10.30;6.57;;;;;;;;;;5002366;28;20037;-74
2021/07/25 12:14:51;;;;;;;11.85;6.85;;;;;;;;;;4995733;28;20037;-74
2021/07/25 12:17:38;;;;;;;11.13;6.15;;;;;;;;;;4997544;28;20034;-74
2021/07/25 12:20:15;;;;;;;11.10;6.65;;;;;;;;;;5004593;28;20018;-75
2021/07/25 12:23:01;;;;;;;10.93;6.20;;;;;;;;;;4999456;28;20378;-75
2021/07/25 12:25:34;;;;;;;9.32;6.03;;;;;;;;;;4996346;28;20041;-74
2021/07/25 12:28:07;;;;;;;8.55;5.97;;;;;;;;;;5002018;28;20113;-75
2021/07/25 12:30:41;;;;;;;10.98;6.10;;;;;;;;;;4997465;28;20081;-75
2021/07/25 12:33:07;;;;;;;10.40;6.45;;;;;;;;;;4995579;28;20030;-74
2021/07/25 12:35:33;;;;;;;10.07;6.03;;;;;;;;;;5000243;28;20062;-75
2021/07/25 12:38:00;;;;;;;13.48;6.53;;;;;;;;;;4993867;28;20515;-75
2021/07/25 12:40:32;;;;;;;13.23;7.03;;;;;;;;;;4999344;28;20103;-75
2021/07/25 12:42:58;;;;;;;10.75;6.07;;;;;;;;;;4995878;28;20080;-75
2021/07/25 12:45:32;;;;;;;10.43;6.10;;;;;;;;;;4999407;28;20030;-75
2021/07/25 12:48:13;;;;;;;12.00;5.88;;;;;;;;;;4986173;28;20026;-75
2021/07/25 12:53:41;;;;;;;9.52;5.90;;;;;;;;;;4997000;28;20520;-83
2021/07/25 12:56:12;;;;;;;8.63;5.60;;;;;;;;;;5001703;28;20033;-82
2021/07/25 12:58:40;;;;;;;12.13;5.30;;;;;;;;;;5002104;28;20022;-83
2021/07/25 13:03:44;;;;;;;12.50;5.10;;;;;;;;;;4993801;28;20030;-83
2021/07/25 13:04:07;;;;;;;7.47;4.95;;;;;;;;;;4991827;28;20040;-82
2021/07/25 13:06:43;;;;;;;9.48;5.25;;;;;;;;;;5017698;28;20381;-82
2021/07/25 13:09:14;;;;;;;10.93;5.00;;;;;;;;;;4992353;28;20493;-83
2021/07/25 13:11:44;;;;;;;6.80;4.53;;;;;;;;;;5004159;28;20037;-82
2021/07/25 13:14:13;;;;;;;9.05;5.00;;;;;;;;;;5001006;28;20981;-82
2021/07/25 13:16:43;;;;;;;9.93;5.25;;;;;;;;;;4999974;28;20027;-82
2021/07/25 13:19:09;;;;;;;10.48;5.15;;;;;;;;;;5003435;28;20393;-83
2021/07/25 13:21:34;;;;;;;9.32;4.85;;;;;;;;;;5005552;28;20030;-83
2021/07/25 13:24:00;;;;;;;10.25;5.28;;;;;;;;;;5008337;28;20034;-76
2021/07/25 13:26:27;;;;;;;12.20;5.15;;;;;;;;;;5003461;28;20463;-75
2021/07/25 13:28:52;;;;;;;10.85;5.50;;;;;;;;;;4996219;28;20118;-75
2021/07/25 13:31:19;;;;;;;12.88;5.03;;;;;;;;;;4989110;28;20055;-75
2021/07/25 13:33:46;;;;;;;13.45;5.38;;;;;;;;;;4996544;28;20136;-76
2021/07/25 13:36:12;;;;;;;10.45;5.38;;;;;;;;;;4996342;28;20046;-75
2021/07/25 13:38:40;;;;;;;9.85;4.97;;;;;;;;;;4992616;28;20043;-76
2021/07/25 13:41:06;;;;;;;12.10;4.72;;;;;;;;;;4995883;28;20651;-75
2021/07/25 13:43:34;;;;;;;6.90;4.93;;;;;;;;;;4977281;28;20049;-76
2021/07/25 13:46:01;;;;;;;13.05;5.00;;;;;;;;;;4994635;28;20030;-75
2021/07/25 13:48:31;;;;;;;8.80;4.90;;;;;;;;;;5003077;28;20705;-76
2021/07/25 13:50:58;;;;;;;8.03;5.07;;;;;;;;;;4999074;28;20062;-76
2021/07/25 13:53:23;;;;;;;10.35;5.30;;;;;;;;;;4976692;28;20042;-76
2021/07/25 13:55:49;;;;;;;9.30;5.10;;;;;;;;;;4993294;28;20042;-75
2021/07/25 13:58:14;;;;;;;10.32;5.20;;;;;;;;;;4997142;28;20026;-75
2021/07/25 14:00:40;;;;;;;11.52;5.32;;;;;;;;;;5004772;28;20064;-75
2021/07/25 14:03:05;;;;;;;13.77;4.90;;;;;;;;;;4999121;28;20029;-75
2021/07/25 14:05:35;;;;;;;13.80;5.10;;;;;;;;;;5000845;28;20513;-75
2021/07/25 14:08:02;;;;;;;8.68;4.80;;;;;;;;;;4989306;28;20052;-76
2021/07/25 14:10:28;;;;;;;10.57;5.15;;;;;;;;;;5002121;28;20030;-76
2021/07/25 14:12:55;;;;;;;12.48;4.75;;;;;;;;;;5000648;28;20030;-76
2021/07/25 14:15:20;;;;;;;11.82;4.90;;;;;;;;;;5001851;28;20022;-76
2021/07/25 14:17:46;;;;;;;10.98;5.15;;;;;;;;;;4993314;28;20517;-75
2021/07/25 14:20:14;;;;;;;10.25;5.18;;;;;;;;;;4999564;28;20038;-76
2021/07/25 14:22:43;;;;;;;11.65;4.85;;;;;;;;;;4985438;28;20032;-83
2021/07/25 14:25:10;;;;;;;9.52;4.53;;;;;;;;;;4977380;28;20078;-83
2021/07/25 14:27:37;;;;;;;14.25;4.60;;;;;;;;;;4991215;28;20042;-82
2021/07/25 14:30:05;;;;;;;9.88;4.90;;;;;;;;;;4996248;28;20057;-84
2021/07/25 14:32:31;;;;;;;8.43;4.88;;;;;;;;;;4994653;28;20522;-83
2021/07/25 14:34:57;;;;;;;8.30;4.68;;;;;;;;;;4997974;28;20058;-84
2021/07/25 14:37:22;;;;;;;7.00;4.53;;;;;;;;;;4994549;28;20101;-84
2021/07/25 14:39:48;;;;;;;6.28;4.70;;;;;;;;;;5005077;28;20114;-84